Sheffield, Illinois
Current Conditions -  °F | °C
As of 9:15 AM on Friday 31 Oct 2014 (Local Time) from KSQI Reporting Station
Overcast Overcast  
Wind Chill: 27°   Ceiling: 3600
Heat Index: 37°   Visibility: 10mi
Dew Point: 21°   Wind: 21mph
Humidity: 52%   Direction: 20°NNE
Pressure: 30.26"   Gusts: 35mph
Location:  41.36°N, 89.74°W
Report Text: KSQI 311415Z AUTO 02018G30KT 10SM OVC036 03/M06 A3026 RMK AO1
Loading
Personal Weather Stations






























Interactive Weather Map
Tropical Storm Tracking
New forecast layout! Learn more

10-Day Weather Forecast

Advertisements
Track Severe Weather on mobile